KMDJ/MDJ METAR and TAF weather

Enter ICAO airport designator
Station Type Date Time Source
KMDJ METAR 2021/03/24 23:05 UTC NOAA

KMDJ 242305Z AUTO 12018KT 3SM BR FEW065 23/22 A2981 RMK A01


Station Type Date Time Source
KMDJ Decoded METAR 2021/03/24 23:05 UTC NOAA

Mississippi Canyon, LA, United States (KMDJ) 28-38-33N 089-47-39W
Mar 24, 2021 - 07:05 PM EDT / 2021.03.24 2305 UTC
Wind: from the ESE (120 degrees) at 21 MPH (18 KT):0
Visibility: 3 mile(s):0
Sky conditions: mostly clear
Weather: mist
Temperature: 73 F (23 C)
Dew Point: 71 F (22 C)
Relative Humidity: 94%
Pressure (altimeter): 29.81 in. Hg (1009 hPa)
ob: KMDJ 242305Z AUTO 12018KT 3SM BR FEW065 23/22 A2981 RMK A01
cycle: 23

Station Type Date Time Source
KMDJ TAF UTC NOAA

Error!

Example: see airport list